Lynden Pindling International Airport
MYNN : now visible

Aeroporto :











RITROVATECI SU...

 
LOGIN :

Iscrizione | Disclaimer

   EN    FR    IT 

 









Sommario :    VFR   VFR Marginale   IFR   IFR Intensivo   IFR Molto Intensivo
Visibilità : 
Base nubi : 
>= 8 km
>= 3000ft
5 / 8 km
1000 / 3000 ft
1500m / 5 km
500 / 1000 ft
800 / 1500m
200 / 500 ft
< 800m
< 200 ft
Simboli :   Temporali  Nebbia  Neve Forte  Precipitazioni Forti  Vento > 20 kt






- Altitudine del aeroporto : 16 ft
- Codice IATA : NAS


MYNN - Lynden Pindling International

ULTIMO METAR :
  • 040300Z 04003KT 360V060 CAVOK 18/13 A3000 RMK PKWND 5KT

METARs OBSOLETI :
  • 040200Z VRB02KT CAVOK 21/13 A3000 RMK PKWND 4KT
  • 040100Z AUTO 02003KT CAVOK 22/13 A2999

TAF TAF MYNN
Valido dal 04 a 00 ore il 05 a 00 ore UTC


032130Z 0400/0424 02008KT 9999 FEW040



MetMap, La meteo Aeronautica in un colpo d'occhio ! - Copyright ORBIFLY Dicembre 2007 - Disclaimer

ORBIFLY MET'MAP TEAM :

Programmazione e sviluppo : Alexandra Zaïnal
Concezione : Baudouin d'Aumeries
Aiuto per la programmazione : Marc-Olivier Méhu
Supporto tecnico e logistico : Manuel Goepfert
Aiuto per la traduzione : Arnaldo La Scala

Contatto : metmap@orbifly.com




FONTI E CREDITI :

   NOAA       Earth
Advisory